createdAt,value
2019-05-05T00:00:44.617Z,102965.48
2019-05-05T00:03:34.760Z,102966.38
2019-05-05T00:06:05.329Z,102964.66
2019-05-05T00:08:35.230Z,102968.13
2019-05-05T00:11:15.378Z,102962.52
2019-05-05T00:13:50.037Z,102967.71
2019-05-05T00:16:37.173Z,102964.72
2019-05-05T00:19:06.697Z,102963.84
2019-05-05T00:21:36.051Z,102965.20
2019-05-05T00:24:05.390Z,102963.02
2019-05-05T00:26:34.994Z,102965.22
2019-05-05T00:29:04.552Z,102960.91
2019-05-05T00:31:34.913Z,102958.32
2019-05-05T00:34:05.133Z,102959.61
2019-05-05T00:36:35.335Z,102965.70
2019-05-05T00:39:07.174Z,102967.43
2019-05-05T00:41:36.530Z,102966.58
2019-05-05T00:44:05.972Z,102972.64
2019-05-05T00:46:54.905Z,102980.04
2019-05-05T00:49:25.109Z,102979.63
2019-05-05T00:51:54.736Z,102989.63
2019-05-05T00:54:24.455Z,102983.13
2019-05-05T00:56:54.477Z,102983.58
2019-05-05T00:59:25.691Z,102984.89
2019-05-05T01:02:10.639Z,102990.52
2019-05-05T01:04:52.143Z,102989.25
2019-05-05T01:07:21.495Z,102983.17
2019-05-05T01:09:50.816Z,102978.86
2019-05-05T01:12:21.498Z,102978.00
2019-05-05T01:14:50.960Z,102984.92
2019-05-05T01:17:20.295Z,102983.64
2019-05-05T01:20:01.175Z,102982.34
2019-05-05T01:22:20.930Z,102977.58
2019-05-05T01:24:50.279Z,102980.20
2019-05-05T01:27:19.701Z,102979.77
2019-05-05T01:29:49.033Z,102979.81
2019-05-05T01:32:24.657Z,102982.42
2019-05-05T01:34:54.912Z,102983.73
2019-05-05T01:37:34.860Z,102991.97
2019-05-05T01:40:14.160Z,102991.55
2019-05-05T01:42:44.708Z,102988.10
2019-05-05T01:45:14.965Z,102989.40
2019-05-05T01:47:45.267Z,102986.80
2019-05-05T01:50:20.618Z,102989.86
2019-05-05T01:52:45.821Z,102988.14
2019-05-05T01:55:15.187Z,102993.34
2019-05-05T01:57:45.145Z,102983.39
2019-05-05T02:00:14.939Z,102987.72
2019-05-05T02:02:44.992Z,102984.28
2019-05-05T02:05:14.938Z,102985.14
2019-05-05T02:07:44.853Z,102996.40
2019-05-05T02:10:15.436Z,102998.12
2019-05-05T02:12:44.897Z,102998.12
2019-05-05T02:15:15.021Z,102996.84
2019-05-05T02:17:44.758Z,102992.97
2019-05-05T02:20:40.001Z,102994.70
2019-05-05T02:23:10.563Z,102992.97
2019-05-05T02:25:40.022Z,102988.66
2019-05-05T02:28:09.434Z,102991.69
2019-05-05T02:30:48.998Z,102997.30
2019-05-05T02:33:18.361Z,103002.92
2019-05-05T02:35:47.724Z,102996.87
2019-05-05T02:38:18.455Z,102993.43
2019-05-05T02:40:48.568Z,102996.44
2019-05-05T02:43:19.265Z,103003.37
2019-05-05T02:46:20.660Z,103005.50
2019-05-05T02:48:54.879Z,103002.48
2019-05-05T02:51:26.084Z,103005.95
2019-05-05T02:53:57.037Z,103006.37
2019-05-05T02:56:34.198Z,103010.70
2019-05-05T02:59:08.049Z,103006.82
2019-05-05T03:01:48.005Z,103004.66
2019-05-05T03:04:18.547Z,103008.12
2019-05-05T03:06:51.297Z,103009.41
2019-05-05T03:09:21.747Z,103006.78
2019-05-05T03:11:54.239Z,103011.53
2019-05-05T03:14:24.975Z,103006.80
2019-05-05T03:16:54.679Z,103015.43
2019-05-05T03:19:25.532Z,103010.65
2019-05-05T03:21:55.565Z,103012.38
2019-05-05T03:24:24.928Z,103018.85
2019-05-05T03:26:55.564Z,103013.67
2019-05-05T03:29:25.626Z,103019.69
2019-05-05T03:31:56.281Z,103012.77
2019-05-05T03:34:25.999Z,103009.74
2019-05-05T03:36:55.328Z,103013.19
2019-05-05T03:39:26.546Z,103011.42
2019-05-05T03:42:27.870Z,103016.17
2019-05-05T03:45:07.116Z,103017.91
2019-05-05T03:47:37.661Z,103027.81
2019-05-05T03:50:07.488Z,103021.75
2019-05-05T03:52:37.030Z,103026.50
2019-05-05T03:55:07.381Z,103021.30
2019-05-05T03:57:36.925Z,103022.58
2019-05-05T04:00:07.508Z,103033.78
2019-05-05T04:03:06.882Z,103026.42
2019-05-05T04:05:44.485Z,103028.98
2019-05-05T04:08:14.474Z,103025.53
2019-05-05T04:10:44.636Z,103021.23
2019-05-05T04:13:14.391Z,103029.41
2019-05-05T04:15:45.971Z,103022.92
2019-05-05T04:18:24.918Z,103020.31
2019-05-05T04:20:54.221Z,103022.48
2019-05-05T04:23:24.542Z,103017.73
2019-05-05T04:25:54.474Z,103015.55
2019-05-05T04:28:24.162Z,103012.54
2019-05-05T04:30:53.710Z,103006.48
2019-05-05T04:33:23.706Z,103012.92
2019-05-05T04:35:54.546Z,103020.69
2019-05-05T04:38:24.358Z,103017.63
2019-05-05T04:40:54.234Z,103016.34
2019-05-05T04:43:24.614Z,103013.31
2019-05-05T04:45:54.204Z,103011.12
2019-05-05T04:48:34.528Z,103019.31
2019-05-05T04:51:13.868Z,103026.18
2019-05-05T04:54:01.163Z,103023.58
2019-05-05T04:56:30.829Z,103023.15
2019-05-05T04:59:03.848Z,103024.38
2019-05-05T05:01:33.562Z,103024.39
2019-05-05T05:04:11.128Z,103032.55
2019-05-05T05:06:47.074Z,103031.67
2019-05-05T05:09:16.411Z,103033.84
2019-05-05T05:11:45.718Z,103036.84
2019-05-05T05:14:15.072Z,103035.98
2019-05-05T05:16:44.873Z,103041.58
2019-05-05T05:19:14.203Z,103038.12
2019-05-05T05:21:57.660Z,103047.20
2019-05-05T05:24:15.345Z,103050.20
2019-05-05T05:26:44.686Z,103055.80
2019-05-05T05:29:15.043Z,103055.80
2019-05-05T05:31:44.522Z,103052.77
2019-05-05T05:34:14.855Z,103050.60
2019-05-05T05:36:44.461Z,103049.34
2019-05-05T05:39:24.617Z,103056.64
2019-05-05T05:41:54.679Z,103055.80
2019-05-05T05:44:41.612Z,103057.13
2019-05-05T05:47:18.710Z,103057.15
2019-05-05T05:49:54.438Z,103052.84
2019-05-05T05:52:24.354Z,103052.42
2019-05-05T05:54:53.858Z,103055.01
2019-05-05T05:57:24.058Z,103064.48
2019-05-05T05:59:54.873Z,103058.89
2019-05-05T06:02:24.363Z,103061.03
2019-05-05T06:04:59.982Z,103063.25
2019-05-05T06:07:29.319Z,103058.08
2019-05-05T06:09:58.657Z,103055.52
2019-05-05T06:12:27.974Z,103054.22
2019-05-05T06:14:59.145Z,103060.72
2019-05-05T06:17:28.561Z,103065.05
2019-05-05T06:19:58.074Z,103062.05
2019-05-05T06:22:29.343Z,103061.66
2019-05-05T06:24:58.493Z,103066.83
2019-05-05T06:27:27.851Z,103071.16
2019-05-05T06:29:57.203Z,103074.16
2019-05-05T06:32:26.546Z,103075.48
2019-05-05T06:34:55.899Z,103079.39
2019-05-05T06:37:25.207Z,103079.86
2019-05-05T06:39:57.161Z,103083.77
2019-05-05T06:42:34.316Z,103083.36
2019-05-05T06:45:21.230Z,103088.13
2019-05-05T06:47:50.589Z,103085.11
2019-05-05T06:50:20.041Z,103088.99
2019-05-05T06:52:49.399Z,103099.41
2019-05-05T06:55:18.749Z,103096.84
2019-05-05T06:57:48.107Z,103090.38
2019-05-05T07:00:17.451Z,103093.41
2019-05-05T07:02:46.765Z,103095.15
2019-05-05T07:05:16.591Z,103094.72
2019-05-05T07:07:45.924Z,103092.56
2019-05-05T07:10:15.252Z,103093.46
2019-05-05T07:12:44.612Z,103087.41
2019-05-05T07:15:14.634Z,103087.02
2019-05-05T07:17:45.491Z,103089.20
2019-05-05T07:20:15.526Z,103088.75
2019-05-05T07:22:58.045Z,103081.86
2019-05-05T07:25:15.892Z,103082.31
2019-05-05T07:27:45.251Z,103090.55
2019-05-05T07:30:16.458Z,103087.12
2019-05-05T07:32:45.776Z,103088.00
2019-05-05T07:35:21.138Z,103087.58
2019-05-05T07:37:50.484Z,103096.68
2019-05-05T07:40:20.845Z,103092.37
2019-05-05T07:42:50.181Z,103091.95
2019-05-05T07:45:22.974Z,103088.48
2019-05-05T07:47:50.603Z,103095.44
2019-05-05T07:50:31.674Z,103091.12
2019-05-05T07:52:50.973Z,103094.57
2019-05-05T07:55:20.309Z,103092.01
2019-05-05T07:57:49.633Z,103090.28
2019-05-05T08:00:19.173Z,103091.13
2019-05-05T08:02:48.482Z,103087.69
2019-05-05T08:05:17.867Z,103087.25
2019-05-05T08:07:47.213Z,103088.12
2019-05-05T08:10:16.578Z,103085.53
2019-05-05T08:12:47.129Z,103090.70
2019-05-05T08:15:18.575Z,103086.81
2019-05-05T08:18:19.774Z,103078.57
2019-05-05T08:20:53.591Z,103078.13
2019-05-05T08:23:44.700Z,103081.13
2019-05-05T08:26:36.112Z,103081.59
2019-05-05T08:29:23.919Z,103072.88
2019-05-05T08:31:58.210Z,103070.23
2019-05-05T08:34:27.548Z,103076.70
2019-05-05T08:36:59.663Z,103070.58
2019-05-05T08:39:27.917Z,103068.81
2019-05-05T08:41:57.322Z,103064.44
2019-05-05T08:44:26.648Z,103059.20
2019-05-05T08:46:56.014Z,103059.12
2019-05-05T08:49:25.390Z,103055.59
2019-05-05T08:51:54.874Z,103053.38
2019-05-05T08:54:24.357Z,103055.01
2019-05-05T08:56:54.957Z,103051.45
2019-05-05T08:59:24.448Z,103050.47
2019-05-05T09:01:54.228Z,103051.22
2019-05-05T09:04:24.661Z,103048.08
2019-05-05T09:06:54.358Z,103048.00
2019-05-05T09:09:24.239Z,103048.81
2019-05-05T09:11:54.275Z,103046.27
2019-05-05T09:14:24.058Z,103045.45
2019-05-05T09:16:53.778Z,103043.33
2019-05-05T09:19:23.976Z,103038.09
2019-05-05T09:21:54.145Z,103040.67
2019-05-05T09:24:35.141Z,103040.64
2019-05-05T09:27:16.917Z,103034.08
2019-05-05T09:29:46.300Z,103031.41
2019-05-05T09:32:15.647Z,103034.83
2019-05-05T09:34:44.995Z,103027.80
2019-05-05T09:37:14.535Z,103020.34
2019-05-05T09:39:43.991Z,103015.97
2019-05-05T09:42:14.485Z,103028.09
2019-05-05T09:44:44.117Z,103029.44
2019-05-05T09:47:13.882Z,103012.59
2019-05-05T09:49:44.550Z,103011.69
2019-05-05T09:52:14.205Z,103008.15
2019-05-05T09:54:43.981Z,102992.44
2019-05-05T09:57:14.543Z,102990.27
2019-05-05T09:59:44.404Z,102966.81
2019-05-05T10:02:13.830Z,102965.05
2019-05-05T10:04:44.063Z,102952.84
2019-05-05T10:07:13.927Z,102957.98
2019-05-05T10:09:43.874Z,102957.94
2019-05-05T10:12:13.244Z,102958.37
2019-05-05T10:14:44.725Z,102960.52
2019-05-05T10:17:14.190Z,102961.34
2019-05-05T10:19:44.081Z,102960.00
2019-05-05T10:22:14.782Z,102954.71
2019-05-05T10:24:57.368Z,102950.28
2019-05-05T10:27:25.973Z,102947.20
2019-05-05T10:29:55.360Z,102948.86
2019-05-05T10:32:24.719Z,102937.52
2019-05-05T10:35:04.481Z,102939.61
2019-05-05T10:37:34.672Z,102935.69
2019-05-05T10:40:04.684Z,102941.73
2019-05-05T10:42:53.948Z,102926.08
2019-05-05T10:45:24.478Z,102925.60
2019-05-05T10:47:54.102Z,102931.91
2019-05-05T10:50:24.662Z,102931.91
2019-05-05T10:52:54.263Z,102920.95
2019-05-05T10:55:24.008Z,102917.80
2019-05-05T10:57:54.373Z,102922.06
2019-05-05T11:00:47.168Z,102905.48
2019-05-05T11:03:16.692Z,102908.92
2019-05-05T11:05:46.258Z,102898.44
2019-05-05T11:08:15.823Z,102894.70
2019-05-05T11:10:45.368Z,102894.70
2019-05-05T11:13:14.765Z,102892.05
2019-05-05T11:15:44.564Z,102885.90
2019-05-05T11:18:14.706Z,102881.48
2019-05-05T11:20:44.939Z,102876.66
2019-05-05T11:23:15.182Z,102876.97
2019-05-05T11:25:44.749Z,102876.48
2019-05-05T11:28:14.095Z,102882.91
2019-05-05T11:30:44.958Z,102885.45
2019-05-05T11:33:31.828Z,102880.50
2019-05-05T11:36:35.357Z,102880.50
2019-05-05T11:39:06.440Z,102885.61
2019-05-05T11:41:35.808Z,102866.16
2019-05-05T11:44:05.479Z,102864.30
2019-05-05T11:46:34.816Z,102864.30
2019-05-05T11:49:04.945Z,102853.77
2019-05-05T11:51:34.434Z,102853.48
2019-05-05T11:54:04.671Z,102853.48
2019-05-05T11:56:34.110Z,102858.95
2019-05-05T11:59:04.034Z,102856.52
2019-05-05T12:01:33.399Z,102858.50
2019-05-05T12:04:04.393Z,102849.22
2019-05-05T12:06:34.058Z,102828.29
2019-05-05T12:09:07.079Z,102848.90
2019-05-05T12:11:36.445Z,102844.27
2019-05-05T12:14:07.789Z,102844.12
2019-05-05T12:16:37.177Z,102836.22
2019-05-05T12:19:10.665Z,102832.34
2019-05-05T12:21:40.033Z,102832.34
2019-05-05T12:24:16.487Z,102843.72
2019-05-05T12:26:56.651Z,102833.95
2019-05-05T12:29:28.733Z,102833.95
2019-05-05T12:31:58.134Z,102835.45
2019-05-05T12:34:28.923Z,102829.98
2019-05-05T12:36:58.274Z,102827.73
2019-05-05T12:39:27.630Z,102837.02
2019-05-05T12:41:56.972Z,102834.34
2019-05-05T12:44:31.296Z,102821.11
2019-05-05T12:47:18.285Z,102828.86
2019-05-05T12:49:47.663Z,102827.05
2019-05-05T12:52:17.064Z,102843.32
2019-05-05T12:54:46.401Z,102839.45
2019-05-05T12:57:15.777Z,102833.79
2019-05-05T12:59:45.266Z,102828.97
2019-05-05T13:02:14.620Z,102825.93
2019-05-05T13:04:43.979Z,102826.34
2019-05-05T13:07:13.729Z,102824.89
2019-05-05T13:09:44.093Z,102828.88
2019-05-05T13:12:15.046Z,102826.08
2019-05-05T13:14:44.515Z,102818.06
2019-05-05T13:17:14.252Z,102820.59
2019-05-05T13:19:58.845Z,102809.87
2019-05-05T13:22:59.407Z,102819.82
2019-05-05T13:25:59.600Z,102807.62
2019-05-05T13:28:28.915Z,102813.52
2019-05-05T13:30:58.320Z,102809.72
2019-05-05T13:33:27.710Z,102819.67
2019-05-05T13:35:57.038Z,102812.25
2019-05-05T13:38:27.427Z,102815.00
2019-05-05T13:40:56.738Z,102808.92
2019-05-05T13:43:26.060Z,102806.23
2019-05-05T13:46:07.341Z,102808.44
2019-05-05T13:48:36.677Z,102815.96
2019-05-05T13:51:06.907Z,102792.60
2019-05-05T13:53:36.238Z,102795.55
2019-05-05T13:56:12.022Z,102791.09
2019-05-05T13:58:36.816Z,102795.35
2019-05-05T14:01:06.160Z,102791.09
2019-05-05T14:03:35.524Z,102786.91
2019-05-05T14:06:04.907Z,102788.09
2019-05-05T14:08:36.393Z,102780.80
2019-05-05T14:11:05.448Z,102785.95
2019-05-05T14:13:34.808Z,102778.79
2019-05-05T14:16:04.149Z,102775.34
2019-05-05T14:18:33.507Z,102773.17
2019-05-05T14:21:02.874Z,102774.21
2019-05-05T14:23:34.539Z,102764.95
2019-05-05T14:26:04.019Z,102758.52
2019-05-05T14:28:34.020Z,102762.66
2019-05-05T14:31:25.818Z,102760.77
2019-05-05T14:33:57.461Z,102754.54
2019-05-05T14:36:48.740Z,102754.95
2019-05-05T14:39:19.133Z,102759.65
2019-05-05T14:41:48.494Z,102749.83
2019-05-05T14:44:17.837Z,102749.07
2019-05-05T14:46:47.305Z,102748.63
2019-05-05T14:49:16.652Z,102758.05
2019-05-05T14:51:45.995Z,102749.13
2019-05-05T14:54:15.351Z,102736.40
2019-05-05T14:56:44.766Z,102745.50
2019-05-05T14:59:14.383Z,102745.50
2019-05-05T15:01:44.680Z,102731.27
2019-05-05T15:04:15.913Z,102731.27
2019-05-05T15:06:57.821Z,102736.97
2019-05-05T15:09:48.821Z,102734.87
2019-05-05T15:12:35.039Z,102732.28
2019-05-05T15:15:07.337Z,102732.28
2019-05-05T15:17:36.359Z,102723.27
2019-05-05T15:20:07.111Z,102731.91
2019-05-05T15:22:36.484Z,102728.41
2019-05-05T15:25:06.279Z,102725.44
2019-05-05T15:27:35.630Z,102725.44
2019-05-05T15:30:05.608Z,102731.33
2019-05-05T15:32:34.968Z,102716.12
2019-05-05T15:35:04.490Z,102719.08
2019-05-05T15:37:33.844Z,102715.11
2019-05-05T15:40:04.023Z,102710.75
2019-05-05T15:42:34.592Z,102706.61
2019-05-05T15:45:04.202Z,102707.92
2019-05-05T15:47:34.297Z,102709.69
2019-05-05T15:50:04.428Z,102712.53
2019-05-05T15:52:35.137Z,102717.80
2019-05-05T15:55:05.092Z,102703.94
2019-05-05T15:57:34.439Z,102707.28
2019-05-05T16:00:03.906Z,102707.28
2019-05-05T16:02:35.885Z,102704.27
2019-05-05T16:05:04.585Z,102696.11
2019-05-05T16:07:34.074Z,102690.31
2019-05-05T16:10:04.103Z,102690.31
2019-05-05T16:12:36.499Z,102685.55
2019-05-05T16:15:27.683Z,102694.96
2019-05-05T16:18:31.137Z,102682.84
2019-05-05T16:21:27.933Z,102660.22
2019-05-05T16:24:03.524Z,102668.06
2019-05-05T16:26:32.957Z,102658.23
2019-05-05T16:29:04.153Z,102672.80
2019-05-05T16:31:34.227Z,102678.38
2019-05-05T16:34:03.917Z,102661.16
2019-05-05T16:36:33.597Z,102661.17
2019-05-05T16:39:02.967Z,102665.27
2019-05-05T16:41:34.024Z,102663.35
2019-05-05T16:44:03.573Z,102665.86
2019-05-05T16:46:35.202Z,102668.67
2019-05-05T16:49:04.894Z,102671.31
2019-05-05T16:51:37.634Z,102658.09
2019-05-05T16:54:13.713Z,102664.13
2019-05-05T16:56:44.159Z,102663.58
2019-05-05T16:59:13.842Z,102669.63
2019-05-05T17:01:44.746Z,102667.08
2019-05-05T17:04:14.392Z,102667.99
2019-05-05T17:06:45.703Z,102664.94
2019-05-05T17:09:15.060Z,102668.48
2019-05-05T17:12:03.460Z,102668.48
2019-05-05T17:14:40.848Z,102653.81
2019-05-05T17:17:23.288Z,102651.98
2019-05-05T17:20:00.620Z,102646.98
2019-05-05T17:22:54.481Z,102640.72
2019-05-05T17:25:24.611Z,102645.88
2019-05-05T17:27:54.591Z,102649.83
2019-05-05T17:30:26.987Z,102639.59
2019-05-05T17:32:55.426Z,102635.05
2019-05-05T17:35:24.806Z,102644.77
2019-05-05T17:37:55.812Z,102636.52
2019-05-05T17:40:34.609Z,102637.52
2019-05-05T17:43:27.839Z,102636.28
2019-05-05T17:46:13.455Z,102636.00
2019-05-05T17:49:14.171Z,102635.51
2019-05-05T17:52:00.873Z,102636.64
2019-05-05T17:54:35.967Z,102628.73
2019-05-05T17:57:05.299Z,102633.63
2019-05-05T17:59:34.718Z,102631.19
2019-05-05T18:02:05.149Z,102620.77
2019-05-05T18:04:34.541Z,102615.23
2019-05-05T18:07:25.625Z,102620.44
2019-05-05T18:09:57.904Z,102610.44
2019-05-05T18:12:33.981Z,102614.58
2019-05-05T18:15:04.483Z,102613.80
2019-05-05T18:17:34.072Z,102615.23
2019-05-05T18:20:04.447Z,102615.12
2019-05-05T18:22:34.326Z,102606.21
2019-05-05T18:25:03.843Z,102603.59
2019-05-05T18:27:34.423Z,102609.22
2019-05-05T18:30:04.111Z,102612.91
2019-05-05T18:32:34.203Z,102616.45
2019-05-05T18:35:06.634Z,102618.14
2019-05-05T18:37:34.883Z,102612.34
2019-05-05T18:40:04.264Z,102611.95
2019-05-05T18:42:34.042Z,102614.55
2019-05-05T18:45:07.631Z,102614.77
2019-05-05T18:47:36.994Z,102621.58
2019-05-05T18:50:07.018Z,102612.59
2019-05-05T18:52:37.310Z,102627.58
2019-05-05T18:55:07.217Z,102636.40
2019-05-05T18:57:36.572Z,102645.08
2019-05-05T19:00:08.895Z,102656.05
2019-05-05T19:02:44.279Z,102658.95
2019-05-05T19:05:23.781Z,102661.95
2019-05-05T19:07:56.586Z,102658.38
2019-05-05T19:10:26.056Z,102652.11
2019-05-05T19:12:55.459Z,102652.73
2019-05-05T19:15:24.891Z,102658.63
2019-05-05T19:17:54.251Z,102660.61
2019-05-05T19:20:35.651Z,102665.20
2019-05-05T19:23:05.900Z,102665.77
2019-05-05T19:25:35.879Z,102656.11
2019-05-05T19:28:05.274Z,102669.27
2019-05-05T19:30:36.168Z,102675.56
2019-05-05T19:33:05.842Z,102678.98
2019-05-05T19:35:43.963Z,102678.98
2019-05-05T19:38:06.430Z,102694.09
2019-05-05T19:40:35.836Z,102694.09
2019-05-05T19:43:05.197Z,102686.43
2019-05-05T19:45:34.640Z,102702.52
2019-05-05T19:48:05.981Z,102713.53
2019-05-05T19:50:44.555Z,102715.41
2019-05-05T19:53:24.652Z,102708.20
2019-05-05T19:55:56.373Z,102711.73
2019-05-05T19:58:25.742Z,102711.73
2019-05-05T20:00:57.527Z,102699.45
2019-05-05T20:03:27.054Z,102711.70
2019-05-05T20:05:56.459Z,102712.63
2019-05-05T20:08:39.770Z,102712.63
2019-05-05T20:10:56.913Z,102712.76
2019-05-05T20:13:26.282Z,102712.48
2019-05-05T20:16:04.364Z,102712.48
2019-05-05T20:18:34.285Z,102712.61
2019-05-05T20:21:07.059Z,102718.77
2019-05-05T20:23:34.817Z,102717.63
2019-05-05T20:26:04.258Z,102719.03
2019-05-05T20:28:33.943Z,102711.70
2019-05-05T20:31:03.715Z,102711.70
2019-05-05T20:33:48.966Z,102719.58
2019-05-05T20:36:23.683Z,102710.73
2019-05-05T20:38:54.881Z,102710.73
2019-05-05T20:41:24.956Z,102704.36
2019-05-05T20:43:54.527Z,102716.00
2019-05-05T20:46:23.936Z,102716.00
2019-05-05T20:48:54.516Z,102708.28
2019-05-05T20:51:24.350Z,102709.64
2019-05-05T20:53:54.308Z,102708.91
2019-05-05T20:56:23.753Z,102705.27
2019-05-05T20:58:54.899Z,102705.27
2019-05-05T21:01:24.699Z,102713.67
2019-05-05T21:03:54.057Z,102718.98
2019-05-05T21:06:24.563Z,102719.08
2019-05-05T21:08:54.069Z,102718.31
2019-05-05T21:11:24.653Z,102723.52
2019-05-05T21:13:54.417Z,102721.38
2019-05-05T21:16:23.850Z,102724.52
2019-05-05T21:18:53.895Z,102726.73
2019-05-05T21:21:26.151Z,102725.95
2019-05-05T21:23:57.435Z,102728.65
2019-05-05T21:26:45.689Z,102724.79
2019-05-05T21:29:15.342Z,102724.84
2019-05-05T21:31:44.743Z,102722.28
2019-05-05T21:34:14.178Z,102724.50
2019-05-05T21:36:44.824Z,102722.02
2019-05-05T21:39:14.846Z,102720.76
2019-05-05T21:41:44.314Z,102721.27
2019-05-05T21:44:14.680Z,102717.76
2019-05-05T21:46:44.223Z,102718.70
2019-05-05T21:49:16.012Z,102720.02
2019-05-05T21:52:09.114Z,102715.67
2019-05-05T21:54:48.750Z,102719.14
2019-05-05T21:57:52.288Z,102720.52
2019-05-05T22:00:39.332Z,102715.75
2019-05-05T22:03:09.357Z,102717.95
2019-05-05T22:05:38.836Z,102713.63
2019-05-05T22:08:08.183Z,102712.80
2019-05-05T22:10:37.626Z,102713.27
2019-05-05T22:13:06.936Z,102713.70
2019-05-05T22:15:38.771Z,102717.20
2019-05-05T22:18:08.094Z,102715.05
2019-05-05T22:20:44.228Z,102720.33
2019-05-05T22:23:14.527Z,102722.92
2019-05-05T22:25:44.022Z,102723.84
2019-05-05T22:28:13.399Z,102723.88
2019-05-05T22:30:43.705Z,102720.44
2019-05-05T22:33:13.735Z,102716.10
2019-05-05T22:35:44.249Z,102714.84
2019-05-05T22:38:13.835Z,102713.14
2019-05-05T22:40:44.098Z,102708.37
2019-05-05T22:43:14.439Z,102704.53
2019-05-05T22:45:45.015Z,102710.17
2019-05-05T22:48:14.547Z,102700.67
2019-05-05T22:50:43.918Z,102704.17
2019-05-05T22:53:13.991Z,102704.61
2019-05-05T22:55:44.369Z,102701.21
2019-05-05T22:58:14.366Z,102703.02
2019-05-05T23:00:43.992Z,102712.16
2019-05-05T23:03:20.770Z,102705.69
2019-05-05T23:05:54.958Z,102702.25
2019-05-05T23:08:24.434Z,102706.62
2019-05-05T23:10:54.389Z,102703.59
2019-05-05T23:13:23.891Z,102700.15
2019-05-05T23:16:00.240Z,102700.62
2019-05-05T23:18:29.601Z,102697.16
2019-05-05T23:21:24.735Z,102704.13
2019-05-05T23:24:24.883Z,102701.09
2019-05-05T23:26:55.044Z,102698.52
2019-05-05T23:29:26.475Z,102698.08
2019-05-05T23:31:55.525Z,102696.34
2019-05-05T23:34:24.968Z,102699.38
2019-05-05T23:36:54.511Z,102695.11
2019-05-05T23:39:24.284Z,102697.31
2019-05-05T23:41:54.749Z,102693.47
2019-05-05T23:44:24.224Z,102692.64
2019-05-05T23:46:53.922Z,102700.91
2019-05-05T23:49:24.211Z,102684.93
2019-05-05T23:51:54.181Z,102687.56
2019-05-05T23:54:24.690Z,102688.45
2019-05-05T23:56:54.244Z,102686.78
2019-05-05T23:59:24.047Z,102681.62
